Time,TemperatureF,DewpointF,PressureIn,WindDirection,WindDirectionDegrees,WindSpeedMPH,WindSpeedGustMPH,Humidity,HourlyPrecipIn,Conditions,Clouds,dailyrainin,SolarRadiationWatts/m^2,SoftwareType,DateUTC
2013-01-19 00:03:00,11.0,7.0,-100.00,WNW,295,1.0,3.0,84,0.00,,,0.00,0.000000,,2013-01-19 05:03:00,
2013-01-19 00:12:00,11.0,7.0,-100.00,WNW,295,1.0,3.0,84,0.00,,,0.00,0.000000,,2013-01-19 05:12:00,
2013-01-19 00:22:00,11.0,7.0,-100.00,WNW,295,1.0,3.0,84,0.00,,,0.00,0.000000,,2013-01-19 05:22:00,
2013-01-19 00:32:00,11.0,7.0,-100.00,WNW,295,1.0,3.0,84,0.00,,,0.00,0.000000,,2013-01-19 05:32:00,
2013-01-19 00:42:00,11.0,7.0,-100.00,NNW,335,2.0,3.0,85,0.00,,,0.00,0.000000,,2013-01-19 05:42:00,
2013-01-19 01:02:00,11.0,7.0,-100.00,NNW,335,2.0,3.0,85,0.00,,,0.00,0.000000,,2013-01-19 06:02:00,
2013-01-19 01:12:00,11.0,7.0,-100.00,NNW,335,2.0,3.0,85,0.00,,,0.00,0.000000,,2013-01-19 06:12:00,
2013-01-19 01:22:00,11.0,7.0,-100.00,NNW,335,2.0,3.0,85,0.00,,,0.00,0.000000,,2013-01-19 06:22:00,
2013-01-19 01:32:00,11.0,7.0,-100.00,NNW,335,2.0,3.0,85,0.00,,,0.00,0.000000,,2013-01-19 06:32:00,
2013-01-19 01:42:00,11.0,7.0,-100.00,North,352,1.0,4.0,85,0.00,,,0.00,0.000000,,2013-01-19 06:42:00,
2013-01-19 02:02:00,11.0,7.0,-100.00,North,352,1.0,4.0,85,0.00,,,0.00,0.000000,,2013-01-19 07:02:00,
2013-01-19 02:12:00,11.0,7.0,-100.00,North,352,1.0,4.0,85,0.00,,,0.00,0.000000,,2013-01-19 07:12:00,
2013-01-19 02:22:00,11.0,7.0,-100.00,North,352,1.0,4.0,85,0.00,,,0.00,0.000000,,2013-01-19 07:22:00,
2013-01-19 02:32:00,11.0,7.0,-100.00,North,352,1.0,4.0,85,0.00,,,0.00,0.000000,,2013-01-19 07:32:00,
2013-01-19 02:42:00,11.0,7.0,-100.00,ESE,114,0.0,2.0,84,0.00,,,-99.99,0.000000,,2013-01-19 07:42:00,
2013-01-19 03:02:00,11.0,7.0,-100.00,ESE,114,0.0,2.0,84,0.00,,,-99.99,0.000000,,2013-01-19 08:02:00,
2013-01-19 03:12:00,11.0,7.0,-100.00,ESE,114,0.0,2.0,84,0.00,,,-99.99,0.000000,,2013-01-19 08:12:00,
2013-01-19 03:22:00,11.0,7.0,-100.00,ESE,114,0.0,2.0,84,0.00,,,-99.99,0.000000,,2013-01-19 08:22:00,
2013-01-19 03:32:00,11.0,7.0,-100.00,ESE,114,0.0,2.0,84,0.00,,,-99.99,0.000000,,2013-01-19 08:32:00,
2013-01-19 03:42:00,11.0,8.0,-100.00,NNW,327,0.0,2.0,86,0.00,,,0.00,0.000000,,2013-01-19 08:42:00,
2013-01-19 04:02:00,11.0,8.0,-100.00,NNW,327,0.0,2.0,86,0.00,,,0.00,0.000000,,2013-01-19 09:02:00,
2013-01-19 04:12:00,11.0,8.0,-100.00,NNW,327,0.0,2.0,86,0.00,,,0.00,0.000000,,2013-01-19 09:12:00,
2013-01-19 04:22:00,11.0,8.0,-100.00,NNW,327,0.0,2.0,86,0.00,,,0.00,0.000000,,2013-01-19 09:22:00,
2013-01-19 04:32:00,11.0,8.0,-100.00,NNW,327,0.0,2.0,86,0.00,,,0.00,0.000000,,2013-01-19 09:32:00,
2013-01-19 04:42:00,11.0,8.0,-100.00,ENE,59,0.0,2.0,86,0.00,,,0.00,0.000000,,2013-01-19 09:42:00,
2013-01-19 05:02:00,11.0,8.0,-100.00,ENE,59,0.0,2.0,86,0.00,,,0.00,0.000000,,2013-01-19 10:02:00,
2013-01-19 05:12:00,11.0,8.0,-100.00,ENE,59,0.0,2.0,86,0.00,,,0.00,0.000000,,2013-01-19 10:12:00,
2013-01-19 05:22:00,11.0,8.0,-100.00,ENE,59,0.0,2.0,86,0.00,,,0.00,0.000000,,2013-01-19 10:22:00,
2013-01-19 05:32:00,11.0,8.0,-100.00,ENE,59,0.0,2.0,86,0.00,,,0.00,0.000000,,2013-01-19 10:32:00,
2013-01-19 06:02:00,10.0,6.0,-100.00,NW,310,0.0,3.0,85,0.00,,,0.00,0.000000,,2013-01-19 11:02:00,
2013-01-19 06:12:00,10.0,6.0,-100.00,NW,310,0.0,3.0,85,0.00,,,0.00,0.000000,,2013-01-19 11:12:00,
2013-01-19 07:42:00,10.0,7.0,-100.00,NE,54,0.0,2.0,87,0.00,,,0.00,0.000000,,2013-01-19 12:42:00,
2013-01-19 08:02:00,10.0,7.0,-100.00,NE,54,0.0,2.0,87,0.00,,,0.00,0.000000,,2013-01-19 13:02:00,
2013-01-19 08:12:00,10.0,7.0,-100.00,NE,54,0.0,2.0,87,0.00,,,0.00,0.000000,,2013-01-19 13:12:00,
2013-01-19 08:22:00,10.0,7.0,-100.00,NE,54,0.0,2.0,87,0.00,,,0.00,0.000000,,2013-01-19 13:22:00,
2013-01-19 08:33:00,10.0,7.0,-100.00,NE,54,0.0,2.0,87,0.00,,,0.00,0.000000,,2013-01-19 13:33:00,
2013-01-19 08:42:00,9.0,6.0,-100.00,East,90,0.0,1.0,87,-99.99,,,-99.99,0.000000,,2013-01-19 13:42:00,
2013-01-19 09:02:00,9.0,6.0,-100.00,East,90,0.0,1.0,87,-99.99,,,-99.99,0.000000,,2013-01-19 14:02:00,
2013-01-19 09:12:00,9.0,6.0,-100.00,East,90,0.0,1.0,87,-99.99,,,-99.99,0.000000,,2013-01-19 14:12:00,
2013-01-19 09:22:00,9.0,6.0,-100.00,East,90,0.0,1.0,87,-99.99,,,-99.99,0.000000,,2013-01-19 14:22:00,
2013-01-19 09:33:00,9.0,6.0,-100.00,East,90,0.0,1.0,87,-99.99,,,-99.99,0.000000,,2013-01-19 14:33:00,
2013-01-19 09:42:00,11.0,7.0,-100.00,NNW,346,0.0,1.0,85,0.00,,,-99.99,0.000000,,2013-01-19 14:42:00,
2013-01-19 10:03:00,11.0,7.0,-100.00,NNW,346,0.0,1.0,85,0.00,,,-99.99,0.000000,,2013-01-19 15:03:00,
2013-01-19 10:12:00,11.0,7.0,-100.00,NNW,346,0.0,1.0,85,0.00,,,-99.99,0.000000,,2013-01-19 15:12:00,
2013-01-19 10:22:00,11.0,7.0,-100.00,NNW,346,0.0,1.0,85,0.00,,,-99.99,0.000000,,2013-01-19 15:22:00,
2013-01-19 10:33:00,11.0,7.0,-100.00,NNW,346,0.0,1.0,85,0.00,,,-99.99,0.000000,,2013-01-19 15:33:00,
2013-01-19 10:42:00,10.0,6.0,-100.00,NNE,30,0.0,2.0,85,-99.99,,,0.00,5.000000,,2013-01-19 15:42:00,
2013-01-19 11:03:00,10.0,6.0,-100.00,NNE,30,0.0,2.0,85,-99.99,,,0.00,5.000000,,2013-01-19 16:03:00,
2013-01-19 11:12:00,10.0,6.0,-100.00,NNE,30,0.0,2.0,85,-99.99,,,0.00,5.000000,,2013-01-19 16:12:00,
2013-01-19 11:23:00,10.0,6.0,-100.00,NNE,30,0.0,2.0,85,-99.99,,,0.00,5.000000,,2013-01-19 16:23:00,
2013-01-19 11:33:00,10.0,6.0,-100.00,NNE,30,0.0,2.0,85,-99.99,,,0.00,5.000000,,2013-01-19 16:33:00,
2013-01-19 11:42:00,12.0,6.0,-100.00,NNW,333,1.0,3.0,76,0.00,,,-99.99,98.000000,,2013-01-19 16:42:00,
2013-01-19 12:02:00,12.0,6.0,-100.00,NNW,333,1.0,3.0,76,0.00,,,-99.99,98.000000,,2013-01-19 17:02:00,
2013-01-19 12:16:00,12.0,6.0,-100.00,NNW,333,1.0,3.0,76,0.00,,,-99.99,98.000000,,2013-01-19 17:16:00,
2013-01-19 12:27:00,12.0,6.0,-100.00,NNW,333,1.0,3.0,76,0.00,,,-99.99,98.000000,,2013-01-19 17:27:00,
2013-01-19 12:34:00,12.0,6.0,-100.00,NNW,333,1.0,3.0,76,0.00,,,-99.99,98.000000,,2013-01-19 17:34:00,
2013-01-19 13:08:00,26.0,14.0,-100.00,West,260,0.0,3.0,59,0.00,,,0.00,222.000000,,2013-01-19 18:08:00,
2013-01-19 14:06:00,35.0,13.0,-100.00,ENE,63,0.0,0.0,39,-99.99,,,0.00,368.000000,,2013-01-19 19:06:00,
2013-01-19 15:09:00,26.0,9.0,-100.00,NNW,336,1.0,2.0,49,-99.99,,,0.00,443.000000,,2013-01-19 20:09:00,
2013-01-19 15:17:00,26.0,9.0,-100.00,NNW,336,1.0,2.0,49,-99.99,,,0.00,443.000000,,2013-01-19 20:17:00,
2013-01-19 15:24:00,26.0,9.0,-100.00,NNW,336,1.0,2.0,49,-99.99,,,0.00,443.000000,,2013-01-19 20:24:00,
2013-01-19 16:05:00,26.0,12.0,-100.00,NW,326,2.0,3.0,55,-99.99,,,0.00,467.000000,,2013-01-19 21:05:00,
2013-01-19 16:24:00,26.0,12.0,-100.00,NW,326,2.0,3.0,55,-99.99,,,0.00,467.000000,,2013-01-19 21:24:00,
2013-01-19 16:36:00,26.0,12.0,-100.00,NW,326,2.0,3.0,55,-99.99,,,0.00,467.000000,,2013-01-19 21:36:00,
2013-01-19 16:42:00,27.0,13.0,-100.00,NW,316,1.0,3.0,56,0.00,,,0.00,436.000000,,2013-01-19 21:42:00,
2013-01-19 17:09:00,27.0,13.0,-100.00,NW,316,1.0,3.0,56,0.00,,,0.00,436.000000,,2013-01-19 22:09:00,
2013-01-19 17:15:00,27.0,13.0,-100.00,NW,316,1.0,3.0,56,0.00,,,0.00,436.000000,,2013-01-19 22:15:00,
2013-01-19 17:24:00,27.0,13.0,-100.00,NW,316,1.0,3.0,56,0.00,,,0.00,436.000000,,2013-01-19 22:24:00,
2013-01-19 17:34:00,27.0,13.0,-100.00,NW,316,1.0,3.0,56,0.00,,,0.00,436.000000,,2013-01-19 22:34:00,
2013-01-19 17:42:00,25.0,12.0,-100.00,NNW,331,1.0,3.0,57,0.00,,,0.00,360.000000,,2013-01-19 22:42:00,
2013-01-19 18:10:00,25.0,12.0,-100.00,NNW,331,1.0,3.0,57,0.00,,,0.00,360.000000,,2013-01-19 23:10:00,
2013-01-19 18:24:00,25.0,12.0,-100.00,NNW,331,1.0,3.0,57,0.00,,,0.00,360.000000,,2013-01-19 23:24:00,
2013-01-19 18:33:00,25.0,12.0,-100.00,NNW,331,1.0,3.0,57,0.00,,,0.00,360.000000,,2013-01-19 23:33:00,
2013-01-19 18:42:00,26.0,12.0,-100.00,South,173,0.0,3.0,55,0.00,,,0.00,236.000000,,2013-01-19 23:42:00,
2013-01-19 19:08:00,26.0,12.0,-100.00,South,173,0.0,3.0,55,0.00,,,0.00,236.000000,,2013-01-20 00:08:00,
2013-01-19 19:14:00,26.0,12.0,-100.00,South,173,0.0,3.0,55,0.00,,,0.00,236.000000,,2013-01-20 00:14:00,
2013-01-19 19:24:00,26.0,12.0,-100.00,South,173,0.0,3.0,55,0.00,,,0.00,236.000000,,2013-01-20 00:24:00,
2013-01-19 19:34:00,26.0,12.0,-100.00,South,173,0.0,3.0,55,0.00,,,0.00,236.000000,,2013-01-20 00:34:00,
2013-01-19 20:03:00,18.0,9.0,-100.00,South,183,0.0,1.0,68,0.00,,,0.00,71.000000,,2013-01-20 01:03:00,
2013-01-19 20:24:00,18.0,9.0,-100.00,South,183,0.0,1.0,68,0.00,,,0.00,71.000000,,2013-01-20 01:24:00,
2013-01-19 20:34:00,18.0,9.0,-100.00,South,183,0.0,1.0,68,0.00,,,0.00,71.000000,,2013-01-20 01:34:00,
2013-01-19 20:42:00,13.0,9.0,-100.00,ESE,104,0.0,1.0,82,0.00,,,0.00,2.000000,,2013-01-20 01:42:00,
2013-01-19 21:05:00,13.0,9.0,-100.00,ESE,104,0.0,1.0,82,0.00,,,0.00,2.000000,,2013-01-20 02:05:00,
2013-01-19 21:14:00,13.0,9.0,-100.00,ESE,104,0.0,1.0,82,0.00,,,0.00,2.000000,,2013-01-20 02:14:00,
2013-01-19 21:25:00,13.0,9.0,-100.00,ESE,104,0.0,1.0,82,0.00,,,0.00,2.000000,,2013-01-20 02:25:00,
2013-01-19 21:34:00,13.0,9.0,-100.00,ESE,104,0.0,1.0,82,0.00,,,0.00,2.000000,,2013-01-20 02:34:00,
2013-01-19 21:42:00,14.0,9.0,-100.00,ESE,115,0.0,2.0,79,0.00,,,0.00,0.000000,,2013-01-20 02:42:00,
2013-01-19 22:07:00,14.0,9.0,-100.00,ESE,115,0.0,2.0,79,0.00,,,0.00,0.000000,,2013-01-20 03:07:00,
2013-01-19 22:13:00,14.0,9.0,-100.00,ESE,115,0.0,2.0,79,0.00,,,0.00,0.000000,,2013-01-20 03:13:00,
2013-01-19 22:24:00,14.0,9.0,-100.00,ESE,115,0.0,2.0,79,0.00,,,0.00,0.000000,,2013-01-20 03:24:00,
2013-01-19 22:35:00,14.0,9.0,-100.00,ESE,115,0.0,2.0,79,0.00,,,0.00,0.000000,,2013-01-20 03:35:00,
2013-01-19 22:42:00,13.0,9.0,-100.00,NNE,24,0.0,3.0,83,0.00,,,0.00,0.000000,,2013-01-20 03:42:00,
2013-01-19 23:04:00,13.0,9.0,-100.00,NNE,24,0.0,3.0,83,0.00,,,0.00,0.000000,,2013-01-20 04:04:00,
2013-01-19 23:14:00,13.0,9.0,-100.00,NNE,24,0.0,3.0,83,0.00,,,0.00,0.000000,,2013-01-20 04:14:00,
2013-01-19 23:24:00,13.0,9.0,-100.00,NNE,24,0.0,3.0,83,0.00,,,0.00,0.000000,,2013-01-20 04:24:00,
2013-01-19 23:33:00,13.0,9.0,-100.00,NNE,24,0.0,3.0,83,0.00,,,0.00,0.000000,,2013-01-20 04:33:00,
2013-01-19 23:42:00,12.0,8.0,-100.00,NNW,328,0.0,1.0,83,0.00,,,0.00,0.000000,,2013-01-20 04:42:00,